Time;durP1;ratioP1;P1;durP2;ratioP2;P2;SDS_P1;SDS_P2;PMS_P1;PMS_P2;Temp;Humidity;BMP_temperature;BMP_pressure;BME280_temperature;BME280_humidity;BME280_pressure;Samples;Min_cycle;Max_cycle;Signal;HPM_P1;HPM_P2
2021/06/13 00:01:41;;;;;;;12.70;10.80;;;;;;;18.33;73.17;100128.84;5135832;27;20206;-74
2021/06/13 00:04:08;;;;;;;14.82;11.00;;;;;;;18.36;72.88;100123.16;5135327;27;20653;-72
2021/06/13 00:06:34;;;;;;;12.43;10.95;;;;;;;18.51;72.67;100123.72;5136012;27;20535;-73
2021/06/13 00:09:00;;;;;;;10.32;9.23;;;;;;;18.46;72.02;100112.34;5135706;27;20703;-74
2021/06/13 00:11:26;;;;;;;11.38;10.00;;;;;;;18.32;72.52;100106.19;5135683;27;20192;-74
2021/06/13 00:13:54;;;;;;;11.15;9.82;;;;;;;18.36;72.82;100114.97;5135879;27;20235;-75
2021/06/13 00:16:20;;;;;;;12.93;11.10;;;;;;;18.26;73.25;100116.72;5135628;27;20280;-74
2021/06/13 00:18:48;;;;;;;13.40;11.48;;;;;;;18.51;73.35;100119.13;5135695;27;20191;-74
2021/06/13 00:21:15;;;;;;;10.50;9.40;;;;;;;18.58;71.72;100119.50;5134931;27;20197;-73
2021/06/13 00:23:42;;;;;;;11.07;9.95;;;;;;;18.25;73.27;100123.16;5135089;27;20624;-74
2021/06/13 00:26:09;;;;;;;15.73;9.75;;;;;;;17.97;74.69;100121.81;5135029;27;20291;-74
2021/06/13 00:28:36;;;;;;;12.75;10.43;;;;;;;17.84;74.80;100127.38;5135199;27;20328;-74
2021/06/13 00:31:04;;;;;;;12.63;11.25;;;;;;;17.80;75.20;100136.75;5135420;27;20202;-74
2021/06/13 00:33:30;;;;;;;10.70;9.55;;;;;;;17.79;75.34;100135.00;5135385;27;20228;-73
2021/06/13 00:35:56;;;;;;;13.52;10.48;;;;;;;17.78;75.29;100133.28;5135349;27;20631;-74
2021/06/13 00:38:23;;;;;;;12.48;10.00;;;;;;;17.83;74.91;100128.38;5135237;27;20637;-74
2021/06/13 00:40:49;;;;;;;12.63;10.80;;;;;;;17.94;74.79;100142.00;5134827;27;20201;-73
2021/06/13 00:43:15;;;;;;;11.73;10.52;;;;;;;17.76;74.09;100140.72;5134705;27;20219;-74
2021/06/13 00:45:45;;;;;;;13.57;11.70;;;;;;;17.76;75.05;100146.16;5135046;27;20196;-74
2021/06/13 00:48:12;;;;;;;10.45;9.05;;;;;;;17.75;73.79;100141.69;5135378;27;20218;-74
2021/06/13 00:50:42;;;;;;;10.70;9.70;;;;;;;17.53;75.49;100139.81;5134777;27;20517;-74
2021/06/13 00:53:09;;;;;;;15.57;11.07;;;;;;;17.43;76.21;100145.94;5134743;27;20321;-74
2021/06/13 00:55:36;;;;;;;11.13;10.02;;;;;;;17.27;76.86;100153.56;5135157;27;20215;-73
2021/06/13 00:58:03;;;;;;;12.43;10.45;;;;;;;17.42;76.33;100149.69;5134546;27;20184;-73
2021/06/13 01:00:30;;;;;;;10.77;9.68;;;;;;;17.32;76.88;100145.06;5134476;27;20290;-74
2021/06/13 01:02:56;;;;;;;13.75;9.50;;;;;;;17.27;77.52;100148.13;5134570;27;20179;-74
2021/06/13 01:05:24;;;;;;;12.20;11.00;;;;;;;17.46;77.71;100155.75;5134112;27;20265;-74
2021/06/13 01:08:01;;;;;;;13.18;9.80;;;;;;;17.41;76.86;100147.06;5134674;27;20600;-72
2021/06/13 01:10:38;;;;;;;12.70;9.75;;;;;;;17.19;77.73;100147.88;5134442;27;20896;-74
2021/06/13 01:13:10;;;;;;;13.70;10.98;;;;;;;17.37;77.23;100151.03;5134235;27;20278;-75
2021/06/13 01:15:42;;;;;;;11.05;9.85;;;;;;;17.50;76.41;100157.22;5134118;27;20205;-74
2021/06/13 01:18:16;;;;;;;12.15;10.45;;;;;;;17.64;75.94;100148.88;5134757;27;20615;-73
2021/06/13 01:20:47;;;;;;;10.65;9.55;;;;;;;17.56;75.81;100145.88;5134091;27;20190;-74
2021/06/13 01:23:43;;;;;;;12.65;9.52;;;;;;;17.38;77.18;100156.34;5134513;27;20184;-73
2021/06/13 01:26:59;;;;;;;12.85;11.38;;;;;;;17.24;77.13;100148.38;5133796;27;20179;-74
2021/06/13 01:29:29;;;;;;;16.73;11.52;;;;;;;17.11;77.92;100150.31;5120625;27;20223;-74
2021/06/13 01:31:59;;;;;;;12.40;10.40;;;;;;;17.13;78.17;100153.78;5134037;27;20224;-74
2021/06/13 01:34:29;;;;;;;12.48;10.82;;;;;;;17.07;78.28;100155.09;5134056;27;20665;-75
2021/06/13 01:36:57;;;;;;;10.57;9.48;;;;;;;17.04;78.52;100150.78;5133668;27;20206;-73
2021/06/13 01:39:27;;;;;;;14.77;10.90;;;;;;;17.07;78.15;100166.00;5134073;27;20608;-74
2021/06/13 01:41:58;;;;;;;13.88;10.63;;;;;;;17.02;79.58;100157.31;5133544;27;20183;-74
2021/06/13 01:44:39;;;;;;;14.25;10.45;;;;;;;16.88;79.76;100166.53;5133982;27;20352;-74
2021/06/13 01:47:09;;;;;;;12.95;11.65;;;;;;;16.80;79.87;100158.06;5069968;28;20279;-74
2021/06/13 01:49:35;;;;;;;13.10;10.60;;;;;;;17.00;79.68;100164.72;5069902;28;20657;-74
2021/06/13 01:52:02;;;;;;;12.57;11.07;;;;;;;16.87;79.89;100154.78;5050474;28;20703;-74
2021/06/13 01:54:31;;;;;;;11.40;10.15;;;;;;;16.80;79.31;100158.97;5050230;28;20206;-74
2021/06/13 01:56:58;;;;;;;15.02;10.68;;;;;;;16.79;80.35;100154.50;5057418;28;20185;-74
2021/06/13 01:59:26;;;;;;;11.85;10.73;;;;;;;16.71;79.70;100154.19;5070027;28;20280;-74
2021/06/13 02:01:56;;;;;;;12.75;9.77;;;;;;;16.84;79.02;100149.56;5070020;28;20590;-73
2021/06/13 02:04:26;;;;;;;18.30;12.15;;;;;;;16.71;79.63;100148.75;5069822;28;20913;-74
2021/06/13 02:06:57;;;;;;;13.90;11.18;;;;;;;16.83;79.39;100146.97;5069889;28;20246;-74
2021/06/13 02:09:24;;;;;;;10.48;9.48;;;;;;;16.62;79.74;100144.84;5069902;28;20185;-74
2021/06/13 02:11:51;;;;;;;12.48;11.13;;;;;;;16.74;79.88;100142.19;5061186;28;20197;-74
2021/06/13 02:14:20;;;;;;;12.93;9.93;;;;;;;17.00;77.58;100145.69;5049821;28;20312;-74
2021/06/13 02:16:47;;;;;;;11.23;10.13;;;;;;;17.16;77.16;100138.06;5049790;28;20284;-74
2021/06/13 02:19:18;;;;;;;12.15;9.75;;;;;;;17.07;75.53;100142.41;5050026;28;20178;-74
2021/06/13 02:21:46;;;;;;;12.77;10.52;;;;;;;17.15;75.64;100136.34;5049035;28;20190;-74
2021/06/13 02:24:15;;;;;;;8.52;7.72;;;;;;;17.09;75.08;100142.25;5081416;28;20206;-73
2021/06/13 02:26:43;;;;;;;9.70;8.70;;;;;;;17.22;73.07;100134.03;5133133;27;20188;-74
2021/06/13 02:29:10;;;;;;;8.57;7.75;;;;;;;17.19;73.00;100140.56;5133386;27;20270;-73
2021/06/13 02:31:40;;;;;;;10.02;8.98;;;;;;;17.10;72.61;100141.28;5133218;27;20214;-73
2021/06/13 02:34:08;;;;;;;9.90;7.20;;;;;;;16.87;73.22;100135.75;5133446;27;20203;-73
2021/06/13 02:36:34;;;;;;;11.35;8.43;;;;;;;16.82;73.59;100139.78;5133004;27;20238;-74
2021/06/13 02:39:02;;;;;;;10.48;9.10;;;;;;;16.79;76.65;100145.44;5133592;27;20244;-74
2021/06/13 02:41:28;;;;;;;9.52;8.52;;;;;;;16.77;75.24;100144.69;5141220;27;20959;-74
2021/06/13 02:43:54;;;;;;;10.65;9.55;;;;;;;16.52;77.40;100149.22;5154050;27;20321;-74
2021/06/13 02:46:20;;;;;;;10.52;8.48;;;;;;;16.44;76.96;100148.94;5154220;27;20184;-74
2021/06/13 02:48:46;;;;;;;15.27;10.40;;;;;;;16.33;78.74;100147.00;5154037;27;20669;-74
2021/06/13 02:51:15;;;;;;;10.77;9.30;;;;;;;16.40;77.68;100142.00;5153256;27;20265;-74
2021/06/13 02:53:44;;;;;;;11.82;9.35;;;;;;;16.50;77.83;100144.88;5153409;27;20285;-74
2021/06/13 02:56:18;;;;;;;11.65;9.13;;;;;;;16.46;77.49;100146.97;5153621;27;20230;-74
2021/06/13 02:58:46;;;;;;;10.13;9.23;;;;;;;16.26;78.82;100145.72;5153767;27;20626;-74
2021/06/13 03:01:14;;;;;;;11.07;9.95;;;;;;;16.06;79.33;100152.59;5153832;27;20210;-74
2021/06/13 03:03:42;;;;;;;16.10;10.50;;;;;;;15.96;81.15;100146.09;5153458;27;20188;-74
2021/06/13 03:06:12;;;;;;;12.20;8.30;;;;;;;15.87;80.92;100154.91;5153636;27;20178;-74
2021/06/13 03:08:39;;;;;;;10.77;9.40;;;;;;;16.08;79.67;100150.66;5153391;27;20274;-73
2021/06/13 03:11:07;;;;;;;12.73;9.15;;;;;;;15.95;80.40;100157.94;5153384;27;20261;-73
2021/06/13 03:13:37;;;;;;;12.07;8.65;;;;;;;15.91;80.02;100160.00;5152591;27;20190;-73
2021/06/13 03:16:05;;;;;;;11.35;8.43;;;;;;;15.86;80.02;100166.75;5153152;27;20229;-73
2021/06/13 03:18:32;;;;;;;12.43;10.77;;;;;;;16.22;79.79;100160.50;5152511;27;20288;-73
2021/06/13 03:21:00;;;;;;;12.32;9.95;;;;;;;16.34;79.26;100162.31;5152884;27;20183;-74
2021/06/13 03:23:29;;;;;;;14.45;9.88;;;;;;;16.58;77.77;100169.66;5153054;27;20194;-74
2021/06/13 03:25:56;;;;;;;10.57;7.88;;;;;;;16.44;75.59;100166.13;5144633;27;20293;-74
2021/06/13 03:28:25;;;;;;;10.88;7.75;;;;;;;16.18;74.96;100176.16;5153200;27;20608;-75
2021/06/13 03:30:54;;;;;;;7.60;6.85;;;;;;;16.04;75.17;100181.72;5152903;27;20620;-74
2021/06/13 03:33:22;;;;;;;8.50;7.30;;;;;;;15.87;76.58;100190.19;5155335;27;20594;-74
2021/06/13 03:35:50;;;;;;;12.13;8.07;;;;;;;15.55;78.25;100190.56;5156683;27;20313;-74
2021/06/13 03:38:18;;;;;;;9.32;7.75;;;;;;;15.62;77.79;100184.63;5156389;27;20192;-74
2021/06/13 03:40:46;;;;;;;10.10;8.73;;;;;;;15.82;78.04;100194.09;5156691;27;20654;-74
2021/06/13 03:43:14;;;;;;;8.75;7.85;;;;;;;15.97;76.14;100197.59;5148365;27;20185;-74
2021/06/13 03:45:41;;;;;;;9.35;7.88;;;;;;;15.79;77.52;100199.75;5156630;27;20190;-74
2021/06/13 03:48:11;;;;;;;9.10;7.70;;;;;;;15.63;77.38;100197.22;5156211;27;20233;-74
2021/06/13 03:50:38;;;;;;;8.88;7.47;;;;;;;15.58;78.77;100187.63;5156116;27;20194;-74
2021/06/13 03:53:04;;;;;;;9.45;8.27;;;;;;;15.80;79.65;100195.19;5156047;27;20277;-74
2021/06/13 03:55:31;;;;;;;10.35;7.70;;;;;;;15.88;77.31;100192.81;5156108;27;20213;-74
2021/06/13 03:57:58;;;;;;;9.38;6.97;;;;;;;15.63;77.63;100199.06;5156457;27;20610;-75
2021/06/13 04:00:29;;;;;;;8.88;7.43;;;;;;;15.67;78.50;100197.00;5156211;27;20205;-75
2021/06/13 04:02:57;;;;;;;7.72;7.03;;;;;;;15.83;77.53;100205.84;5156350;27;20541;-74
2021/06/13 04:05:25;;;;;;;13.63;8.93;;;;;;;15.51;78.68;100208.94;5155685;27;20227;-74
2021/06/13 04:07:52;;;;;;;11.50;7.55;;;;;;;15.71;76.91;100209.41;5156364;27;20185;-73
2021/06/13 04:10:19;;;;;;;7.93;6.53;;;;;;;15.73;76.91;100218.31;5155635;27;20217;-74
2021/06/13 04:12:48;;;;;;;7.85;7.15;;;;;;;15.49;77.81;100215.41;5156372;27;20209;-74
2021/06/13 04:15:15;;;;;;;11.05;7.38;;;;;;;15.81;78.04;100218.66;5155831;27;20288;-74
2021/06/13 04:17:43;;;;;;;7.13;6.25;;;;;;;15.93;76.73;100225.06;5156346;27;20650;-74
2021/06/13 04:20:11;;;;;;;8.00;7.13;;;;;;;15.96;77.24;100223.00;5156418;27;20305;-74
2021/06/13 04:22:42;;;;;;;11.43;7.50;;;;;;;16.14;75.18;100228.09;5155799;27;20718;-73
2021/06/13 04:25:10;;;;;;;8.63;6.65;;;;;;;16.27;74.67;100232.56;5156251;27;20188;-74
2021/06/13 04:27:38;;;;;;;11.48;8.15;;;;;;;16.30;74.43;100236.91;5155858;27;20182;-73
2021/06/13 04:30:06;;;;;;;21.15;11.98;;;;;;;16.10;76.06;100241.06;5155569;27;20277;-73
2021/06/13 04:32:33;;;;;;;10.43;8.63;;;;;;;15.89;75.75;100250.72;5155956;27;20277;-73
2021/06/13 04:35:00;;;;;;;15.63;10.57;;;;;;;15.96;75.83;100244.72;5155542;27;20222;-73
2021/06/13 04:37:26;;;;;;;11.25;9.02;;;;;;;15.91;76.25;100249.63;5155587;27;20208;-73
2021/06/13 04:39:54;;;;;;;10.35;9.13;;;;;;;16.25;76.14;100250.81;5155209;27;20190;-73
2021/06/13 04:42:21;;;;;;;14.38;10.10;;;;;;;16.42;75.07;100241.47;5155442;27;20196;-73
2021/06/13 04:44:48;;;;;;;9.38;7.15;;;;;;;16.33;74.11;100253.00;5154186;27;20214;-74
2021/06/13 04:47:15;;;;;;;12.27;9.20;;;;;;;16.34;74.78;100257.44;5147357;27;20192;-74
2021/06/13 04:49:43;;;;;;;9.48;8.38;;;;;;;16.49;73.80;100257.34;5155284;27;20197;-74
2021/06/13 04:52:14;;;;;;;14.55;10.55;;;;;;;16.47;75.18;100258.28;5155170;27;20193;-74
2021/06/13 04:54:52;;;;;;;11.77;8.30;;;;;;;16.69;73.08;100251.31;5155012;27;20202;-74
2021/06/13 04:57:33;;;;;;;10.38;7.35;;;;;;;16.62;72.31;100263.59;5147024;27;20646;-74
2021/06/13 04:59:59;;;;;;;10.68;7.68;;;;;;;16.72;71.55;100253.78;5154683;27;20276;-74
2021/06/13 05:02:26;;;;;;;13.32;9.20;;;;;;;16.61;72.52;100261.88;5155175;27;20273;-74
2021/06/13 05:04:54;;;;;;;13.20;8.05;;;;;;;16.59;72.51;100259.25;5154500;27;20217;-74
2021/06/13 05:07:21;;;;;;;9.48;7.28;;;;;;;16.66;71.50;100267.84;5154845;27;20182;-74
2021/06/13 05:09:48;;;;;;;7.97;7.18;;;;;;;16.87;70.36;100269.03;5155245;27;20534;-74
2021/06/13 05:12:14;;;;;;;7.13;6.00;;;;;;;17.05;68.52;100279.53;5154811;27;20196;-74
2021/06/13 05:14:42;;;;;;;12.40;7.82;;;;;;;17.41;68.74;100283.16;5154807;27;20212;-74
2021/06/13 05:17:09;;;;;;;10.20;7.18;;;;;;;17.37;65.74;100287.13;5154835;27;20183;-74
2021/06/13 05:19:39;;;;;;;11.38;8.85;;;;;;;17.37;65.98;100276.25;5154812;27;20225;-74
2021/06/13 05:22:07;;;;;;;18.60;13.70;;;;;;;17.24;68.45;100288.03;5154712;27;20185;-74
2021/06/13 05:24:33;;;;;;;9.27;6.80;;;;;;;17.81;64.33;100288.28;5146807;27;20194;-74
2021/06/13 05:27:00;;;;;;;9.40;7.57;;;;;;;17.55;65.15;100285.72;5154315;27;20194;-73
2021/06/13 05:29:27;;;;;;;11.00;8.05;;;;;;;17.59;64.99;100279.06;5154050;27;20191;-74
2021/06/13 05:31:57;;;;;;;5.65;5.00;;;;;;;17.91;63.07;100286.63;5154359;27;20211;-73
2021/06/13 05:34:23;;;;;;;12.60;6.47;;;;;;;18.01;62.78;100279.47;5153251;27;20685;-73
2021/06/13 05:36:50;;;;;;;8.70;5.72;;;;;;;17.89;62.71;100283.16;5154465;27;20299;-74
2021/06/13 05:39:17;;;;;;;8.75;6.65;;;;;;;18.14;61.79;100287.56;5154441;27;20213;-72
2021/06/13 05:41:43;;;;;;;10.55;6.25;;;;;;;17.99;62.07;100289.63;5153713;27;20187;-73
2021/06/13 05:44:10;;;;;;;7.35;5.88;;;;;;;18.05;60.68;100291.00;5154421;27;20286;-74
2021/06/13 05:46:36;;;;;;;8.40;6.70;;;;;;;18.12;60.85;100295.84;5154698;27;20977;-73
2021/06/13 05:49:04;;;;;;;15.55;6.65;;;;;;;17.90;61.78;100288.47;5154674;27;20201;-74
2021/06/13 05:51:31;;;;;;;6.68;6.00;;;;;;;18.31;60.24;100294.38;5154685;27;21047;-73
2021/06/13 05:53:57;;;;;;;12.27;6.85;;;;;;;18.66;58.86;100298.88;5154715;27;20303;-73
2021/06/13 05:56:24;;;;;;;11.13;6.70;;;;;;;18.91;58.00;100301.38;5154649;27;20226;-73
2021/06/13 05:58:51;;;;;;;9.35;6.65;;;;;;;18.39;59.33;100299.25;5154560;27;20188;-75
2021/06/13 06:01:17;;;;;;;13.20;7.13;;;;;;;18.59;57.95;100305.81;5153851;27;20202;-74
2021/06/13 06:03:44;;;;;;;7.47;6.47;;;;;;;18.48;58.92;100307.53;5153659;27;20283;-74
2021/06/13 06:06:12;;;;;;;9.13;6.90;;;;;;;18.45;59.03;100312.38;5153754;27;20191;-74
2021/06/13 06:08:38;;;;;;;10.15;6.97;;;;;;;18.21;59.30;100309.75;5153976;27;20684;-74
2021/06/13 06:11:06;;;;;;;12.35;7.32;;;;;;;18.36;59.21;100308.53;5153570;27;20199;-73
2021/06/13 06:13:33;;;;;;;10.68;7.05;;;;;;;18.69;58.42;100312.25;5153739;27;20189;-74
2021/06/13 06:15:59;;;;;;;9.70;7.90;;;;;;;18.16;59.88;100314.66;5153734;27;20235;-74
2021/06/13 06:18:26;;;;;;;9.82;7.22;;;;;;;18.28;59.82;100311.84;5153676;27;20543;-74
2021/06/13 06:20:52;;;;;;;10.85;8.02;;;;;;;18.49;58.77;100322.91;5153635;27;20206;-73
2021/06/13 06:23:20;;;;;;;9.00;7.95;;;;;;;18.43;58.72;100309.78;5153379;27;20188;-74
2021/06/13 06:25:47;;;;;;;15.15;7.97;;;;;;;18.48;59.29;100329.38;5153648;27;20552;-74
2021/06/13 06:28:14;;;;;;;10.07;7.85;;;;;;;18.70;58.33;100322.16;5153426;27;20222;-75
2021/06/13 06:30:41;;;;;;;19.33;8.75;;;;;;;18.85;57.71;100331.88;5153001;27;20371;-74
2021/06/13 06:33:07;;;;;;;10.25;7.40;;;;;;;18.93;57.24;100334.88;5153378;27;20188;-74
2021/06/13 06:35:34;;;;;;;10.93;7.15;;;;;;;18.89;57.57;100327.91;5153357;27;20251;-73
2021/06/13 06:38:01;;;;;;;9.93;8.00;;;;;;;19.26;56.57;100338.53;5153349;27;20189;-74
2021/06/13 06:40:29;;;;;;;10.25;8.00;;;;;;;19.40;55.98;100337.38;5153126;27;20195;-74
2021/06/13 06:42:55;;;;;;;11.15;7.68;;;;;;;19.43;55.26;100345.34;5152906;27;20199;-74
2021/06/13 06:45:22;;;;;;;9.20;7.15;;;;;;;19.56;54.69;100342.47;5153399;27;20611;-74
2021/06/13 06:47:48;;;;;;;9.23;7.35;;;;;;;19.90;54.19;100342.34;5153359;27;20288;-75
2021/06/13 06:50:16;;;;;;;8.02;7.07;;;;;;;19.74;54.47;100340.94;5153513;27;20597;-74
2021/06/13 06:52:43;;;;;;;10.63;7.18;;;;;;;19.68;54.18;100344.16;5153344;27;20193;-74
2021/06/13 06:55:12;;;;;;;11.38;7.90;;;;;;;19.92;54.16;100348.53;5144966;27;20649;-74
2021/06/13 06:57:43;;;;;;;10.00;7.32;;;;;;;19.90;54.19;100351.44;5153368;27;20201;-74
2021/06/13 07:00:11;;;;;;;11.73;8.73;;;;;;;19.82;53.78;100345.72;5152863;27;20193;-73
2021/06/13 07:02:37;;;;;;;8.00;6.65;;;;;;;20.12;53.44;100358.63;5153264;27;20276;-75
2021/06/13 07:05:05;;;;;;;7.25;6.45;;;;;;;20.07;53.36;100354.56;5152530;27;20324;-74
2021/06/13 07:07:32;;;;;;;7.90;7.20;;;;;;;19.42;54.90;100357.25;5154232;27;20189;-75
2021/06/13 07:09:58;;;;;;;9.35;7.03;;;;;;;19.49;55.20;100363.06;5157252;27;20626;-73
2021/06/13 07:12:26;;;;;;;11.55;6.72;;;;;;;19.81;54.37;100362.25;5156763;27;20287;-75
2021/06/13 07:14:54;;;;;;;9.93;7.40;;;;;;;19.66;53.82;100359.78;5157463;27;20185;-74
2021/06/13 07:17:20;;;;;;;9.90;6.80;;;;;;;20.08;52.76;100368.13;5148382;27;20227;-73
2021/06/13 07:19:47;;;;;;;9.05;6.57;;;;;;;20.37;51.12;100364.72;5156806;27;20200;-73
2021/06/13 07:22:14;;;;;;;6.75;5.90;;;;;;;20.34;51.17;100360.38;5157137;27;20283;-75
2021/06/13 07:24:40;;;;;;;9.23;7.17;;;;;;;20.54;50.60;100357.78;5157064;27;20276;-76
2021/06/13 07:27:08;;;;;;;10.27;6.70;;;;;;;19.96;52.45;100359.06;5156716;27;20442;-75
2021/06/13 07:29:34;;;;;;;8.35;7.45;;;;;;;19.97;53.12;100358.09;5156890;27;20204;-74
2021/06/13 07:32:02;;;;;;;9.65;8.00;;;;;;;20.16;52.48;100353.78;5156770;27;20710;-74
2021/06/13 07:34:29;;;;;;;8.75;5.70;;;;;;;20.34;52.12;100354.91;5156232;27;20213;-75
2021/06/13 07:36:55;;;;;;;11.23;5.90;;;;;;;20.05;51.16;100356.56;5156751;27;20646;-74
2021/06/13 07:39:22;;;;;;;10.68;6.85;;;;;;;20.20;51.61;100353.38;5156598;27;20185;-75
2021/06/13 07:41:49;;;;;;;10.35;7.50;;;;;;;20.69;51.30;100359.19;5156830;27;20638;-75
2021/06/13 07:44:16;;;;;;;10.77;7.60;;;;;;;20.90;50.27;100361.88;5156629;27;20201;-74
2021/06/13 07:46:43;;;;;;;7.88;6.30;;;;;;;20.87;49.88;100364.91;5156694;27;20423;-75
2021/06/13 07:49:11;;;;;;;8.17;6.70;;;;;;;20.95;49.15;100362.34;5156785;27;20663;-75
2021/06/13 07:51:38;;;;;;;7.83;7.03;;;;;;;21.15;48.85;100376.13;5156542;27;20431;-74
2021/06/13 07:54:05;;;;;;;10.87;7.60;;;;;;;20.60;49.67;100366.34;5156037;27;20434;-75
2021/06/13 07:56:31;;;;;;;10.02;7.65;;;;;;;20.14;51.29;100369.44;5156636;27;21025;-75
2021/06/13 07:58:58;;;;;;;10.27;7.43;;;;;;;20.20;50.57;100371.66;5156343;27;20185;-74
2021/06/13 08:01:24;;;;;;;10.38;8.32;;;;;;;20.56;49.32;100367.63;5155962;27;20193;-74
2021/06/13 08:03:51;;;;;;;8.82;7.93;;;;;;;21.00;48.34;100371.00;5155932;27;20224;-75
2021/06/13 08:06:19;;;;;;;11.63;8.87;;;;;;;21.19;47.77;100372.97;5156385;27;20623;-75
2021/06/13 08:08:46;;;;;;;9.30;8.00;;;;;;;21.24;47.54;100359.72;5147842;27;20438;-74
2021/06/13 08:11:12;;;;;;;9.10;7.97;;;;;;;21.43;46.56;100358.91;5156133;27;20431;-75
2021/06/13 08:13:39;;;;;;;9.83;8.73;;;;;;;21.35;46.99;100358.75;5156043;27;20437;-75
2021/06/13 08:16:06;;;;;;;9.17;8.20;;;;;;;21.27;46.92;100364.03;5155573;27;20471;-75
2021/06/13 08:18:33;;;;;;;10.13;7.17;;;;;;;21.36;46.16;100357.72;5155074;27;20470;-75
2021/06/13 08:20:59;;;;;;;14.70;13.47;;;;;;;21.22;45.25;100367.19;5155225;27;20438;-74
2021/06/13 08:23:29;;;;;;;8.10;7.30;;;;;;;21.45;44.49;100359.66;5155814;27;20435;-74
2021/06/13 08:25:55;;;;;;;9.73;7.37;;;;;;;21.17;45.70;100371.38;5148085;27;20790;-74
2021/06/13 08:28:22;;;;;;;7.77;6.40;;;;;;;21.63;43.21;100359.81;5155659;27;20514;-74
2021/06/13 08:30:49;;;;;;;6.67;6.07;;;;;;;21.52;43.31;100361.81;5155711;27;20439;-74
2021/06/13 08:33:15;;;;;;;8.77;7.00;;;;;;;21.80;43.26;100352.78;5155391;27;20436;-74
2021/06/13 08:35:43;;;;;;;7.53;6.83;;;;;;;21.47;43.87;100362.25;5155266;27;20435;-74
2021/06/13 08:38:10;;;;;;;9.27;6.40;;;;;;;21.80;41.91;100355.53;5155951;27;20431;-75
2021/06/13 08:40:39;;;;;;;6.73;6.07;;;;;;;22.06;42.24;100363.19;5155477;27;20511;-74
2021/06/13 08:43:06;;;;;;;11.40;7.57;;;;;;;22.24;42.77;100366.94;5155502;27;20518;-75
2021/06/13 08:45:36;;;;;;;7.40;6.00;;;;;;;21.92;42.98;100363.63;5155428;27;20427;-75
2021/06/13 08:48:03;;;;;;;7.43;6.63;;;;;;;22.32;41.55;100359.84;5147557;27;20620;-75
2021/06/13 08:50:31;;;;;;;7.30;6.13;;;;;;;22.48;41.85;100360.13;5155537;27;20428;-74
2021/06/13 08:52:58;;;;;;;8.90;7.10;;;;;;;22.09;43.05;100354.66;5155343;27;20416;-74
2021/06/13 08:55:24;;;;;;;7.50;6.40;;;;;;;21.84;43.31;100356.09;5155173;27;20453;-74
2021/06/13 08:57:55;;;;;;;8.43;6.50;;;;;;;22.06;42.67;100355.81;5155032;27;20970;-75
2021/06/13 09:00:25;;;;;;;6.43;5.30;;;;;;;22.43;41.62;100359.69;5155233;27;20427;-75
2021/06/13 09:02:52;;;;;;;7.27;5.70;;;;;;;22.50;40.19;100363.59;5154699;27;20854;-74
2021/06/13 09:05:22;;;;;;;5.30;4.80;;;;;;;22.27;39.17;100368.53;5154633;27;20550;-75
2021/06/13 09:07:52;;;;;;;7.13;5.03;;;;;;;22.45;40.18;100350.34;5154649;27;20430;-74
2021/06/13 09:10:23;;;;;;;5.73;4.50;;;;;;;22.36;40.07;100353.94;5155239;27;20535;-74
2021/06/13 09:12:50;;;;;;;6.67;5.17;;;;;;;22.59;39.15;100353.59;5154518;27;20463;-73
2021/06/13 09:15:18;;;;;;;4.97;4.50;;;;;;;22.78;39.19;100355.44;5154793;27;20429;-75
2021/06/13 09:17:45;;;;;;;5.50;4.90;;;;;;;22.68;39.75;100353.59;5154414;27;21014;-73
2021/06/13 09:20:19;;;;;;;6.10;5.40;;;;;;;22.81;39.06;100366.09;5154598;27;20522;-74
2021/06/13 09:23:05;;;;;;;5.77;4.63;;;;;;;22.19;40.13;100368.38;5154041;27;20481;-75
2021/06/13 09:25:32;;;;;;;6.13;4.53;;;;;;;22.32;39.84;100362.59;5154515;27;20435;-74
2021/06/13 09:28:08;;;;;;;6.57;4.83;;;;;;;22.20;39.75;100364.59;5154480;27;20514;-74
2021/06/13 09:30:38;;;;;;;6.93;5.10;;;;;;;22.70;38.28;100361.66;5154167;27;20864;-74
2021/06/13 09:33:08;;;;;;;4.90;4.47;;;;;;;22.72;38.59;100369.75;5154409;27;20531;-75
2021/06/13 09:35:35;;;;;;;5.07;4.40;;;;;;;22.68;39.32;100359.06;5154441;27;20480;-75
2021/06/13 09:38:11;;;;;;;4.90;4.50;;;;;;;22.79;39.26;100363.50;5154206;27;20495;-75
2021/06/13 09:40:39;;;;;;;9.50;4.77;;;;;;;22.57;39.58;100363.88;5154307;27;20465;-75
2021/06/13 09:43:17;;;;;;;8.17;4.70;;;;;;;22.75;39.39;100362.09;5154366;27;20428;-74
2021/06/13 09:45:57;;;;;;;5.50;4.90;;;;;;;23.05;39.33;100362.88;5154024;27;20427;-74
2021/06/13 09:48:24;;;;;;;4.53;4.13;;;;;;;22.55;40.36;100366.75;5146855;27;20531;-75
2021/06/13 09:50:53;;;;;;;5.67;4.60;;;;;;;23.10;39.29;100368.78;5154126;27;20466;-74
2021/06/13 09:53:22;;;;;;;5.23;4.73;;;;;;;23.24;38.81;100357.28;5145853;27;20448;-75
2021/06/13 09:56:01;;;;;;;8.27;4.03;;;;;;;22.80;39.86;100367.13;5154273;27;21333;-75
2021/06/13 09:58:28;;;;;;;6.80;4.73;;;;;;;22.63;40.30;100369.63;5146972;27;20442;-74
2021/06/13 10:01:05;;;;;;;4.30;3.93;;;;;;;22.32;40.79;100374.47;5153350;27;20431;-74
2021/06/13 10:03:35;;;;;;;5.83;4.60;;;;;;;22.14;41.31;100363.31;5153466;27;20431;-75
2021/06/13 10:06:01;;;;;;;5.20;4.30;;;;;;;22.54;40.84;100359.53;5153343;27;20524;-73
2021/06/13 10:08:29;;;;;;;6.00;4.17;;;;;;;22.88;39.86;100356.25;5153660;27;20446;-74
2021/06/13 10:10:58;;;;;;;4.20;3.80;;;;;;;23.26;39.26;100351.63;5153662;27;21008;-75
2021/06/13 10:13:42;;;;;;;6.90;4.47;;;;;;;23.13;39.69;100353.88;5153443;27;20445;-74
2021/06/13 10:16:21;;;;;;;7.13;4.00;;;;;;;23.24;39.53;100346.28;5153505;27;20983;-75
2021/06/13 10:18:52;;;;;;;6.07;4.23;;;;;;;23.36;38.51;100343.31;5153691;27;20431;-75
2021/06/13 10:21:19;;;;;;;7.50;4.87;;;;;;;22.98;39.10;100351.59;5153236;27;20459;-75
2021/06/13 10:23:46;;;;;;;5.27;3.93;;;;;;;23.07;38.99;100347.97;5153603;27;20425;-75
2021/06/13 10:26:13;;;;;;;5.27;4.27;;;;;;;22.51;39.91;100343.38;5153588;27;20427;-75
2021/06/13 10:28:40;;;;;;;5.07;4.60;;;;;;;23.04;39.13;100345.53;5153187;27;20463;-74
2021/06/13 10:31:06;;;;;;;5.20;3.90;;;;;;;22.83;38.74;100342.97;5153513;27;20455;-74
2021/06/13 10:33:35;;;;;;;4.80;4.20;;;;;;;22.98;38.47;100337.88;5153688;27;20458;-74
2021/06/13 10:36:02;;;;;;;6.13;5.50;;;;;;;23.44;37.90;100337.94;5152712;27;20527;-75
2021/06/13 10:38:29;;;;;;;6.73;4.40;;;;;;;23.29;38.55;100340.31;5153462;27;20791;-75
2021/06/13 10:40:56;;;;;;;6.40;4.30;;;;;;;23.42;38.28;100338.06;5152973;27;20439;-76
2021/06/13 10:43:25;;;;;;;5.73;4.60;;;;;;;23.42;38.81;100338.06;5152527;27;20506;-75
2021/06/13 10:45:52;;;;;;;5.37;4.80;;;;;;;23.66;38.86;100336.63;5153569;27;20564;-75
2021/06/13 10:48:20;;;;;;;6.20;5.60;;;;;;;23.81;38.33;100340.59;5153222;27;21179;-75
2021/06/13 10:50:48;;;;;;;4.87;4.23;;;;;;;23.46;38.91;100330.41;5153608;27;20431;-74
2021/06/13 10:53:15;;;;;;;5.23;4.23;;;;;;;23.30;38.85;100329.19;5152498;27;20443;-75
2021/06/13 10:55:52;;;;;;;7.97;5.13;;;;;;;23.46;39.01;100331.25;5152954;27;20428;-73
2021/06/13 10:58:47;;;;;;;5.53;4.63;;;;;;;23.33;39.43;100333.50;5152819;27;20912;-75
2021/06/13 11:01:27;;;;;;;6.40;5.43;;;;;;;23.34;39.12;100343.50;5146435;27;20499;-75
2021/06/13 11:04:02;;;;;;;6.50;4.77;;;;;;;23.32;39.21;100337.28;5152878;27;20462;-75
2021/06/13 11:06:44;;;;;;;5.53;4.87;;;;;;;23.34;39.11;100337.13;5152853;27;20483;-74
2021/06/13 11:09:13;;;;;;;4.77;4.37;;;;;;;23.42;39.18;100332.56;5153073;27;20427;-74
2021/06/13 11:11:43;;;;;;;6.50;5.47;;;;;;;23.71;38.74;100337.03;5152636;27;20435;-74
2021/06/13 11:14:22;;;;;;;4.93;4.03;;;;;;;23.72;37.33;100327.75;5152968;27;20852;-75
2021/06/13 11:16:49;;;;;;;5.60;4.57;;;;;;;23.72;37.13;100327.75;5153023;27;20813;-75
2021/06/13 11:19:26;;;;;;;12.63;4.67;;;;;;;23.51;37.38;100317.06;5152675;27;20461;-75
2021/06/13 11:22:32;;;;;;;3.80;3.50;;;;;;;23.69;36.91;100311.56;5152645;27;20424;-73
2021/06/13 11:25:00;;;;;;;4.73;3.80;;;;;;;23.42;36.99;100304.25;5153217;27;20445;-75
2021/06/13 11:27:30;;;;;;;4.83;3.93;;;;;;;23.40;37.35;100309.03;5152354;27;21002;-73